createdAt,value
2018-12-21T00:01:37.056Z,147.00
2018-12-21T00:04:04.603Z,154.80
2018-12-21T00:06:32.135Z,147.40
2018-12-21T00:08:59.730Z,158.47
2018-12-21T00:11:27.365Z,161.70
2018-12-21T00:13:54.948Z,171.10
2018-12-21T00:16:23.927Z,153.47
2018-12-21T00:18:51.547Z,156.73
2018-12-21T00:21:21.899Z,164.40
2018-12-21T00:23:48.698Z,151.20
2018-12-21T00:26:16.262Z,155.07
2018-12-21T00:28:43.850Z,150.07
2018-12-21T00:31:17.887Z,163.80
2018-12-21T00:33:51.857Z,145.33
2018-12-21T00:36:25.964Z,161.33
2018-12-21T00:38:59.046Z,153.00
2018-12-21T00:41:26.059Z,170.83
2018-12-21T00:43:55.640Z,146.00
2018-12-21T00:46:26.200Z,157.57
2018-12-21T00:48:54.180Z,159.73
2018-12-21T00:51:30.031Z,156.17
2018-12-21T00:53:51.421Z,153.30
2018-12-21T00:56:18.968Z,147.77
2018-12-21T00:58:46.569Z,155.13
2018-12-21T01:01:14.139Z,162.87
2018-12-21T01:03:41.680Z,158.57
2018-12-21T01:06:09.244Z,153.30
2018-12-21T01:08:36.833Z,166.87
2018-12-21T01:11:04.433Z,157.13
2018-12-21T01:13:31.981Z,171.57
2018-12-21T01:16:00.464Z,163.70
2018-12-21T01:18:28.164Z,176.73
2018-12-21T01:20:55.756Z,174.70
2018-12-21T01:23:23.319Z,177.90
2018-12-21T01:25:52.997Z,173.87
2018-12-21T01:28:20.542Z,179.97
2018-12-21T01:30:48.100Z,170.97
2018-12-21T01:33:15.678Z,177.90
2018-12-21T01:35:43.932Z,165.23
2018-12-21T01:38:11.522Z,168.93
2018-12-21T01:40:39.117Z,171.47
2018-12-21T01:43:06.672Z,175.83
2018-12-21T01:45:35.080Z,192.03
2018-12-21T01:48:02.682Z,181.87
2018-12-21T01:50:30.229Z,189.63
2018-12-21T01:52:57.839Z,195.50
2018-12-21T01:55:25.538Z,205.10
2018-12-21T01:57:53.097Z,202.63
2018-12-21T02:00:41.880Z,193.70
2018-12-21T02:03:30.059Z,189.90
2018-12-21T02:05:57.793Z,207.77
2018-12-21T02:08:25.360Z,219.77
2018-12-21T02:10:52.892Z,228.37
2018-12-21T02:13:20.477Z,202.40
2018-12-21T02:15:48.130Z,211.37
2018-12-21T02:18:15.709Z,202.30
2018-12-21T02:20:45.658Z,197.77
2018-12-21T02:26:06.241Z,213.50
2018-12-21T02:28:33.881Z,208.37
2018-12-21T02:31:03.255Z,210.63
2018-12-21T02:33:30.859Z,211.03
2018-12-21T02:36:39.506Z,204.47
2018-12-21T02:47:44.718Z,204.77
2018-12-21T02:50:12.269Z,237.67
2018-12-21T02:52:39.835Z,208.80
2018-12-21T02:55:07.475Z,231.90
2018-12-21T02:57:35.043Z,223.43
2018-12-21T03:00:02.613Z,234.77
2018-12-21T03:02:31.169Z,215.20
2018-12-21T03:04:58.710Z,217.03
2018-12-21T03:07:26.260Z,215.50
2018-12-21T03:09:53.854Z,203.43
2018-12-21T03:12:21.387Z,199.03
2018-12-21T03:14:48.921Z,205.13
2018-12-21T03:17:16.511Z,208.03
2018-12-21T03:19:44.082Z,200.33
2018-12-21T03:22:14.968Z,198.43
2018-12-21T03:24:43.198Z,195.73
2018-12-21T03:27:10.801Z,182.33
2018-12-21T03:29:38.325Z,200.10
2018-12-21T03:32:05.911Z,204.50
2018-12-21T03:34:33.469Z,209.00
2018-12-21T03:37:01.028Z,205.07
2018-12-21T03:39:28.602Z,217.10
2018-12-21T03:41:56.147Z,204.33
2018-12-21T03:44:23.715Z,217.17
2018-12-21T03:46:51.299Z,197.00
2018-12-21T03:49:18.858Z,214.03
2018-12-21T03:51:46.443Z,201.67
2018-12-21T03:54:14.174Z,204.73
2018-12-21T03:56:41.855Z,257.93
2018-12-21T03:59:09.397Z,245.33
2018-12-21T04:01:37.002Z,266.67
2018-12-21T04:04:04.726Z,265.50
2018-12-21T04:06:32.333Z,227.83
2018-12-21T04:08:59.886Z,219.50
2018-12-21T04:11:27.466Z,227.13
2018-12-21T04:13:54.997Z,222.03
2018-12-21T04:16:22.598Z,201.77
2018-12-21T04:18:50.177Z,186.77
2018-12-21T04:21:17.986Z,195.07
2018-12-21T04:23:45.562Z,216.30
2018-12-21T04:26:13.145Z,203.07
2018-12-21T04:28:40.701Z,212.97
2018-12-21T04:31:08.311Z,203.57
2018-12-21T04:33:35.899Z,186.47
2018-12-21T04:36:03.472Z,211.17
2018-12-21T04:38:31.023Z,204.70
2018-12-21T04:40:58.587Z,204.27
2018-12-21T04:43:26.134Z,206.83
2018-12-21T04:45:53.993Z,184.73
2018-12-21T05:47:09.965Z,200.47
2018-12-21T05:49:38.159Z,198.03
2018-12-21T05:52:06.001Z,194.93
2018-12-21T05:54:33.741Z,228.27
2018-12-21T05:57:01.397Z,219.63
2018-12-21T05:59:29.433Z,211.47
2018-12-21T06:01:57.194Z,218.63
2018-12-21T06:04:29.001Z,215.93
2018-12-21T06:06:56.782Z,207.60
2018-12-21T06:09:24.463Z,228.97
2018-12-21T06:11:52.076Z,203.80
2018-12-21T06:14:21.154Z,236.92
2018-12-21T06:16:48.702Z,205.30
2018-12-21T06:19:17.393Z,213.50
2018-12-21T06:21:46.116Z,198.63
2018-12-21T06:24:13.769Z,216.37
2018-12-21T06:26:41.445Z,197.17
2018-12-21T06:29:09.143Z,201.97
2018-12-21T06:31:37.297Z,206.67
2018-12-21T06:34:04.928Z,211.33
2018-12-21T06:36:32.672Z,219.77
2018-12-21T06:39:00.308Z,217.70
2018-12-21T06:41:28.803Z,211.73
2018-12-21T06:43:56.412Z,215.30
2018-12-21T06:46:24.046Z,209.83
2018-12-21T06:48:51.645Z,207.83
2018-12-21T06:51:19.236Z,217.73
2018-12-21T06:53:46.825Z,221.23
2018-12-21T06:56:14.394Z,224.63
2018-12-21T06:58:42.100Z,215.10
2018-12-21T07:01:09.685Z,216.47
2018-12-21T07:03:37.259Z,212.57
2018-12-21T07:06:05.682Z,201.23
2018-12-21T07:08:33.234Z,192.37
2018-12-21T07:11:00.848Z,199.80
2018-12-21T07:13:30.455Z,210.57
2018-12-21T07:15:58.131Z,185.27
2018-12-21T07:18:25.895Z,202.67
2018-12-21T07:20:53.514Z,202.40
2018-12-21T07:23:27.061Z,192.63
2018-12-21T07:25:51.745Z,188.57
2018-12-21T07:28:19.986Z,168.33
2018-12-21T07:30:47.992Z,193.57
2018-12-21T07:33:15.773Z,191.73
2018-12-21T07:35:43.371Z,185.00
2018-12-21T07:38:11.076Z,191.50
2018-12-21T07:40:38.687Z,190.13
2018-12-21T07:43:06.709Z,186.60
2018-12-21T07:45:34.332Z,184.60
2018-12-21T07:48:02.048Z,179.67
2018-12-21T07:50:30.929Z,180.63
2018-12-21T07:52:59.417Z,178.30
2018-12-21T07:55:27.609Z,176.33
2018-12-21T07:57:55.228Z,175.77
2018-12-21T08:00:22.899Z,182.87
2018-12-21T08:02:50.538Z,178.50
2018-12-21T08:05:18.889Z,182.03
2018-12-21T08:07:46.584Z,198.10
2018-12-21T08:10:14.393Z,176.37
2018-12-21T08:12:42.260Z,189.00
2018-12-21T08:15:10.322Z,196.93
2018-12-21T08:17:37.893Z,173.23
2018-12-21T08:20:06.505Z,189.17
2018-12-21T08:22:35.093Z,189.47
2018-12-21T08:25:02.708Z,175.37
2018-12-21T08:27:30.337Z,181.97
2018-12-21T08:29:57.917Z,197.77
2018-12-21T08:32:25.517Z,198.30
2018-12-21T08:34:54.279Z,192.03
2018-12-21T08:37:22.883Z,268.63
2018-12-21T08:39:51.599Z,180.73
2018-12-21T08:42:19.447Z,195.40
2018-12-21T08:44:47.129Z,194.33
2018-12-21T08:47:15.768Z,200.23
2018-12-21T08:49:43.322Z,202.97
2018-12-21T08:52:11.220Z,195.70
2018-12-21T08:54:39.055Z,201.47
2018-12-21T08:57:06.823Z,210.27
2018-12-21T08:59:34.440Z,208.43
2018-12-21T09:02:02.044Z,204.40
2018-12-21T09:04:32.368Z,184.23
2018-12-21T09:06:59.485Z,179.53
2018-12-21T09:09:27.103Z,192.93
2018-12-21T09:11:54.732Z,197.40
2018-12-21T09:14:23.089Z,204.27
2018-12-21T09:16:50.778Z,233.60
2018-12-21T09:19:19.401Z,206.50
2018-12-21T09:21:46.989Z,205.57
2018-12-21T09:24:14.711Z,206.97
2018-12-21T09:26:42.290Z,188.03
2018-12-21T09:29:09.844Z,189.23
2018-12-21T09:31:37.697Z,185.67
2018-12-21T09:34:05.387Z,200.93
2018-12-21T09:36:33.523Z,230.90
2018-12-21T09:39:01.176Z,246.47
2018-12-21T09:41:28.748Z,237.67
2018-12-21T09:43:56.981Z,267.73
2018-12-21T09:46:25.398Z,228.00
2018-12-21T09:48:53.786Z,226.70
2018-12-21T09:51:21.528Z,223.13
2018-12-21T09:53:49.141Z,249.20
2018-12-21T09:56:16.810Z,251.63
2018-12-21T09:58:44.471Z,242.50
2018-12-21T10:01:12.951Z,226.47
2018-12-21T10:03:40.561Z,228.73
2018-12-21T10:06:10.128Z,227.57
2018-12-21T10:08:37.786Z,209.93
2018-12-21T10:11:05.370Z,225.03
2018-12-21T10:13:33.787Z,214.17
2018-12-21T10:16:01.339Z,221.20
2018-12-21T10:18:28.924Z,247.47
2018-12-21T10:20:56.457Z,216.70
2018-12-21T10:23:24.069Z,202.00
2018-12-21T10:25:51.604Z,219.07
2018-12-21T10:28:20.124Z,208.63
2018-12-21T10:30:47.652Z,223.00
2018-12-21T10:33:17.019Z,210.17
2018-12-21T10:35:44.767Z,210.33
2018-12-21T10:38:12.375Z,200.13
2018-12-21T10:40:40.060Z,213.57
2018-12-21T10:43:07.683Z,192.53
2018-12-21T10:45:41.631Z,187.87
2018-12-21T10:48:05.113Z,194.37
2018-12-21T10:50:32.874Z,181.83
2018-12-21T10:53:00.479Z,194.43
2018-12-21T10:55:28.919Z,206.40
2018-12-21T10:57:57.221Z,190.43
2018-12-21T11:00:24.890Z,178.57
2018-12-21T11:02:52.497Z,185.50
2018-12-21T11:05:20.190Z,196.27
2018-12-21T11:07:47.856Z,198.57
2018-12-21T11:10:16.426Z,195.87
2018-12-21T11:12:44.121Z,183.67
2018-12-21T11:15:11.685Z,196.70
2018-12-21T11:17:39.328Z,210.33
2018-12-21T11:20:07.259Z,206.27
2018-12-21T11:22:35.606Z,194.90
2018-12-21T11:25:06.522Z,186.87
2018-12-21T11:27:34.086Z,199.77
2018-12-21T11:30:01.764Z,198.73
2018-12-21T11:32:29.401Z,207.23
2018-12-21T11:34:56.971Z,206.87
2018-12-21T11:37:24.633Z,203.97
2018-12-21T11:39:53.059Z,179.53
2018-12-21T11:42:22.007Z,215.30
2018-12-21T11:44:49.641Z,196.87
2018-12-21T11:47:17.477Z,201.23
2018-12-21T11:49:45.131Z,208.83
2018-12-21T11:52:12.702Z,210.17
2018-12-21T11:54:44.143Z,220.90
2018-12-21T11:57:09.850Z,240.37
2018-12-21T11:59:44.677Z,232.97
2018-12-21T12:02:06.977Z,244.47
2018-12-21T12:04:34.534Z,246.50
2018-12-21T12:07:04.238Z,258.60
2018-12-21T12:09:31.792Z,236.83
2018-12-21T12:11:59.444Z,233.80
2018-12-21T12:14:27.077Z,217.80
2018-12-21T12:16:58.739Z,213.67
2018-12-21T12:19:26.779Z,206.60
2018-12-21T12:21:54.320Z,212.73
2018-12-21T12:24:25.654Z,207.33
2018-12-21T12:26:53.196Z,205.77
2018-12-21T12:29:20.710Z,204.07
2018-12-21T12:31:48.362Z,198.77
2018-12-21T12:34:15.927Z,198.07
2018-12-21T12:36:43.915Z,188.50
2018-12-21T12:39:11.464Z,185.43
2018-12-21T12:41:38.980Z,184.13
2018-12-21T12:44:06.540Z,186.23
2018-12-21T12:46:34.860Z,216.23
2018-12-21T12:49:02.416Z,200.47
2018-12-21T12:51:29.918Z,202.67
2018-12-21T12:53:57.475Z,192.70
2018-12-21T12:56:25.003Z,216.60
2018-12-21T12:58:53.478Z,201.23
2018-12-21T13:01:21.988Z,165.80
2018-12-21T13:03:49.517Z,166.97
2018-12-21T13:06:17.081Z,168.53
2018-12-21T13:08:45.673Z,185.63
2018-12-21T13:11:15.862Z,154.30
2018-12-21T13:13:43.447Z,157.93
2018-12-21T13:16:10.965Z,167.10
2018-12-21T13:18:39.181Z,163.27
2018-12-21T13:21:06.699Z,146.97
2018-12-21T13:23:34.247Z,148.33
2018-12-21T13:26:02.691Z,151.23
2018-12-21T13:28:30.246Z,143.20
2018-12-21T13:30:58.783Z,162.60
2018-12-21T13:33:27.308Z,147.70
2018-12-21T13:35:54.828Z,147.63
2018-12-21T13:38:22.375Z,153.33
2018-12-21T13:40:49.888Z,164.63
2018-12-21T13:43:19.077Z,176.83
2018-12-21T13:45:46.616Z,162.53
2018-12-21T13:48:14.139Z,177.47
2018-12-21T13:50:41.693Z,169.20
2018-12-21T13:53:09.194Z,185.93
2018-12-21T13:55:36.766Z,166.70
2018-12-21T13:58:04.283Z,171.53
2018-12-21T14:00:31.800Z,178.60
2018-12-21T14:02:59.351Z,170.63
2018-12-21T14:05:26.884Z,180.23
2018-12-21T14:07:54.442Z,179.53
2018-12-21T14:10:21.978Z,178.23
2018-12-21T14:12:49.535Z,188.07
2018-12-21T14:15:18.352Z,185.40
2018-12-21T14:17:45.868Z,185.30
2018-12-21T14:20:13.446Z,189.60
2018-12-21T14:22:42.629Z,202.27
2018-12-21T14:25:10.194Z,182.53
2018-12-21T14:27:37.733Z,169.37
2018-12-21T14:30:07.634Z,177.87
2018-12-21T14:32:35.167Z,216.80
2018-12-21T14:35:02.709Z,201.87
2018-12-21T14:37:30.245Z,192.67
2018-12-21T14:39:57.811Z,198.40
2018-12-21T14:42:25.328Z,199.97
2018-12-21T14:44:52.989Z,207.23
2018-12-21T14:47:20.533Z,197.33
2018-12-21T14:49:48.079Z,212.47
2018-12-21T14:52:15.608Z,218.57
2018-12-21T14:54:43.162Z,222.40
2018-12-21T14:57:10.758Z,225.20
2018-12-21T14:59:38.271Z,235.53
2018-12-21T15:02:06.000Z,218.20
2018-12-21T15:04:33.587Z,213.27
2018-12-21T15:07:01.195Z,226.10
2018-12-21T15:09:28.743Z,216.30
2018-12-21T15:11:56.309Z,221.37
2018-12-21T15:14:23.832Z,208.07
2018-12-21T15:16:51.612Z,222.87
2018-12-21T15:19:19.130Z,227.80
2018-12-21T15:21:46.712Z,237.83
2018-12-21T15:24:14.240Z,230.23
2018-12-21T15:26:41.810Z,293.80
2018-12-21T15:29:09.375Z,284.27
2018-12-21T15:31:36.905Z,278.03
2018-12-21T15:34:04.484Z,282.37
2018-12-21T15:36:32.013Z,251.03
2018-12-21T15:38:59.601Z,292.63
2018-12-21T15:41:27.981Z,278.80
2018-12-21T15:43:55.567Z,287.43
2018-12-21T15:46:23.976Z,313.07
2018-12-21T15:48:51.523Z,255.70
2018-12-21T15:51:19.064Z,248.20
2018-12-21T15:53:46.655Z,247.90
2018-12-21T15:56:14.267Z,264.60
2018-12-21T15:58:42.781Z,269.27
2018-12-21T16:01:13.591Z,270.27
2018-12-21T16:03:41.139Z,284.27
2018-12-21T16:06:08.688Z,261.77
2018-12-21T16:08:38.048Z,275.77
2018-12-21T16:11:05.582Z,269.33
2018-12-21T16:13:34.078Z,271.30
2018-12-21T16:16:01.726Z,286.30
2018-12-21T16:18:29.309Z,292.20
2018-12-21T16:20:58.331Z,258.10
2018-12-21T16:23:25.873Z,302.13
2018-12-21T16:25:53.417Z,251.57
2018-12-21T16:28:20.968Z,242.93
2018-12-21T16:30:48.554Z,274.33
2018-12-21T16:33:16.139Z,263.80
2018-12-21T16:35:44.625Z,259.93
2018-12-21T16:38:12.271Z,273.90
2018-12-21T16:40:40.726Z,254.93
2018-12-21T16:43:08.248Z,255.13
2018-12-21T16:45:36.913Z,258.90
2018-12-21T16:48:04.444Z,253.83
2018-12-21T16:50:32.873Z,269.67
2018-12-21T16:53:01.473Z,273.23
2018-12-21T16:55:29.034Z,282.10
2018-12-21T16:57:56.559Z,289.63
2018-12-21T17:00:25.982Z,290.27
2018-12-21T17:02:53.533Z,261.93
2018-12-21T17:05:21.105Z,276.33
2018-12-21T17:07:49.692Z,261.27
2018-12-21T17:10:18.774Z,275.07
2018-12-21T17:12:46.857Z,287.40
2018-12-21T17:15:14.393Z,276.83
2018-12-21T17:17:41.993Z,272.27
2018-12-21T17:20:10.363Z,289.40
2018-12-21T17:22:39.649Z,341.50
2018-12-21T17:25:08.110Z,352.13
2018-12-21T17:27:35.768Z,332.97
2018-12-21T17:30:07.767Z,317.37
2018-12-21T17:32:35.307Z,302.43
2018-12-21T17:35:06.705Z,322.07
2018-12-21T17:37:34.449Z,311.20
2018-12-21T17:40:02.050Z,311.27
2018-12-21T17:42:29.693Z,312.47
2018-12-21T17:44:58.351Z,310.97
2018-12-21T17:47:25.956Z,293.50
2018-12-21T17:49:54.484Z,285.73
2018-12-21T17:52:23.052Z,306.37
2018-12-21T17:54:50.642Z,309.30
2018-12-21T17:57:18.187Z,359.73
2018-12-21T17:59:45.906Z,330.47
2018-12-21T18:02:15.395Z,340.87
2018-12-21T18:04:42.951Z,395.30
2018-12-21T18:07:12.402Z,339.33
2018-12-21T18:09:40.025Z,305.80
2018-12-21T18:12:07.836Z,330.57
2018-12-21T18:14:36.923Z,315.77
2018-12-21T18:17:05.554Z,296.47
2018-12-21T18:19:34.030Z,327.80
2018-12-21T18:22:05.074Z,334.07
2018-12-21T18:24:32.641Z,317.20
2018-12-21T18:27:01.214Z,347.47
2018-12-21T18:29:28.882Z,345.33
2018-12-21T18:31:57.803Z,339.57
2018-12-21T18:34:28.982Z,346.07
2018-12-21T18:36:56.515Z,352.80
2018-12-21T18:39:25.223Z,333.50
2018-12-21T18:41:52.752Z,342.97
2018-12-21T18:44:20.301Z,356.77
2018-12-21T18:46:48.857Z,339.67
2018-12-21T18:49:16.391Z,358.97
2018-12-21T18:51:43.915Z,367.67
2018-12-21T18:54:13.280Z,380.90
2018-12-21T18:56:47.370Z,390.83
2018-12-21T18:59:15.419Z,380.23
2018-12-21T19:01:44.834Z,381.43
2018-12-21T19:04:12.411Z,372.37
2018-12-21T19:06:39.985Z,370.77
2018-12-21T19:09:08.896Z,381.10
2018-12-21T19:11:37.166Z,375.03
2018-12-21T19:14:04.732Z,369.40
2018-12-21T19:16:34.099Z,359.97
2018-12-21T19:19:01.637Z,373.43
2018-12-21T19:21:35.797Z,363.47
2018-12-21T19:24:05.384Z,356.83
2018-12-21T19:26:32.998Z,343.93
2018-12-21T19:29:00.765Z,343.43
2018-12-21T19:31:29.785Z,355.17
2018-12-21T19:33:57.329Z,356.60
2018-12-21T19:36:25.836Z,355.43
2018-12-21T19:38:54.683Z,363.87
2018-12-21T19:41:22.241Z,383.47
2018-12-21T19:43:49.828Z,376.27
2018-12-21T19:46:21.045Z,374.10
2018-12-21T19:48:48.642Z,368.07
2018-12-21T19:51:16.183Z,375.47
2018-12-21T19:53:44.841Z,370.73
2018-12-21T19:56:13.607Z,367.70
2018-12-21T19:58:48.642Z,379.20
2018-12-21T20:01:16.184Z,368.77
2018-12-21T20:03:43.746Z,386.43
2018-12-21T20:06:12.542Z,413.80
2018-12-21T20:08:40.077Z,396.67
2018-12-21T20:11:08.805Z,414.23
2018-12-21T20:13:38.211Z,401.70
2018-12-21T20:16:05.846Z,412.70
2018-12-21T20:18:34.212Z,402.57
2018-12-21T20:21:02.734Z,427.50
2018-12-21T20:23:30.303Z,412.07
2018-12-21T20:25:57.846Z,495.40
2018-12-21T20:28:27.961Z,432.93
2018-12-21T20:30:55.524Z,442.00
2018-12-21T20:33:23.920Z,437.17
2018-12-21T20:35:53.384Z,416.87
2018-12-21T20:38:21.559Z,445.20
2018-12-21T20:40:49.495Z,411.20
2018-12-21T20:43:17.068Z,424.37
2018-12-21T20:45:46.640Z,409.23
2018-12-21T20:48:14.198Z,443.07
2018-12-21T20:50:42.605Z,456.37
2018-12-21T20:53:11.617Z,451.63
2018-12-21T20:55:41.997Z,510.00
2018-12-21T20:58:10.650Z,495.27
2018-12-21T21:00:40.227Z,547.17
2018-12-21T21:03:07.775Z,623.43
2018-12-21T21:11:50.313Z,729.77
2018-12-21T21:17:38.364Z,678.90
2018-12-21T21:23:22.068Z,741.37
2018-12-21T21:29:13.448Z,591.30
2018-12-21T21:35:01.335Z,627.60
2018-12-21T21:40:40.957Z,574.83
2018-12-21T21:46:19.025Z,673.50
2018-12-21T21:52:04.477Z,729.23
2018-12-21T21:57:47.692Z,560.40
2018-12-21T22:03:35.382Z,624.00
2018-12-21T22:09:19.205Z,642.70
2018-12-21T22:14:55.881Z,555.73
2018-12-21T22:20:38.852Z,718.07
2018-12-21T22:26:19.803Z,727.77
2018-12-21T22:32:08.805Z,525.03
2018-12-21T22:37:49.612Z,523.27
2018-12-21T22:43:26.287Z,531.23
2018-12-21T22:49:10.971Z,623.90
2018-12-21T22:55:01.720Z,478.57
2018-12-21T23:00:38.268Z,493.40
2018-12-21T23:06:15.142Z,561.10
2018-12-21T23:11:56.472Z,541.87
2018-12-21T23:17:37.445Z,487.30
2018-12-21T23:23:13.903Z,513.40
2018-12-21T23:28:48.782Z,362.60
2018-12-21T23:34:31.223Z,378.23
2018-12-21T23:40:11.638Z,481.47
2018-12-21T23:46:08.519Z,513.27
2018-12-21T23:51:51.958Z,478.07
2018-12-21T23:57:32.910Z,684.80
